Time;durP1;ratioP1;P1;durP2;ratioP2;P2;SDS_P1;SDS_P2;PMS_P1;PMS_P2;Temp;Humidity;BMP_temperature;BMP_pressure;BME280_temperature;BME280_humidity;BME280_pressure;Samples;Min_cycle;Max_cycle;Signal;HPM_P1;HPM_P2
2023/08/02 00:00:56;;;;;;;10.90;5.53;;;15.50;99.90;;;;;;5024657;28;20404;-82
2023/08/02 00:03:22;;;;;;;10.17;5.80;;;15.60;99.90;;;;;;5070883;28;20446;-82
2023/08/02 00:05:53;;;;;;;12.67;5.50;;;15.40;99.90;;;;;;5063524;28;20827;-82
2023/08/02 00:08:19;;;;;;;12.77;5.93;;;15.50;99.90;;;;;;5043673;28;20427;-82
2023/08/02 00:10:44;;;;;;;12.43;5.90;;;15.50;99.90;;;;;;5069390;28;20754;-82
2023/08/02 00:13:10;;;;;;;10.48;6.03;;;15.60;99.90;;;;;;5039154;28;20825;-81
2023/08/02 00:15:39;;;;;;;15.17;6.37;;;15.60;99.90;;;;;;5062009;28;20420;-82
2023/08/02 00:18:04;;;;;;;14.15;6.63;;;15.30;99.90;;;;;;5057502;28;20479;-82
2023/08/02 00:20:30;;;;;;;13.27;6.80;;;15.60;99.90;;;;;;5040927;28;21009;-82
2023/08/02 00:22:56;;;;;;;12.18;6.82;;;15.50;99.90;;;;;;5040775;28;20400;-82
2023/08/02 00:25:22;;;;;;;17.20;7.00;;;15.40;99.90;;;;;;5059784;28;20422;-79
2023/08/02 00:27:48;;;;;;;14.40;7.25;;;15.50;99.90;;;;;;5075383;28;20836;-81
2023/08/02 00:30:14;;;;;;;15.13;7.60;;;15.50;99.90;;;;;;5042319;28;20589;-82
2023/08/02 00:32:47;;;;;;;14.40;7.32;;;15.50;99.90;;;;;;5042999;28;20423;-82
2023/08/02 00:35:13;;;;;;;15.40;8.20;;;15.40;99.90;;;;;;5040524;28;20434;-83
2023/08/02 00:37:40;;;;;;;13.57;7.53;;;15.50;99.90;;;;;;5057554;28;20407;-82
2023/08/02 00:40:06;;;;;;;14.38;7.75;;;;;;;;;;5074700;28;21147;-82
2023/08/02 00:42:32;;;;;;;16.88;7.70;;;15.60;99.90;;;;;;5050596;28;20766;-81
2023/08/02 00:44:58;;;;;;;18.15;8.77;;;15.40;99.90;;;;;;5059232;28;20422;-81
2023/08/02 00:47:27;;;;;;;19.05;7.70;;;15.30;99.90;;;;;;5059569;28;20405;-82
2023/08/02 00:49:53;;;;;;;15.00;7.85;;;15.50;99.90;;;;;;5060136;28;20401;-81
2023/08/02 00:52:20;;;;;;;15.98;8.50;;;15.40;99.90;;;;;;5056744;28;20782;-81
2023/08/02 00:54:47;;;;;;;13.52;7.63;;;15.50;99.90;;;;;;5075102;28;20418;-82
2023/08/02 00:57:14;;;;;;;15.38;7.95;;;15.70;99.90;;;;;;5075318;28;20408;-82
2023/08/02 00:59:40;;;;;;;15.90;7.35;;;15.40;99.90;;;;;;5090862;28;20471;-81
2023/08/02 01:02:07;;;;;;;18.35;8.48;;;15.30;99.90;;;;;;5072393;28;20418;-82
2023/08/02 01:04:34;;;;;;;14.60;7.87;;;15.50;99.90;;;;;;5045820;28;20430;-82
2023/08/02 01:07:03;;;;;;;15.60;8.13;;;;;;;;;;5063282;28;20418;-82
2023/08/02 01:09:47;;;;;;;21.10;8.33;;;15.30;99.90;;;;;;5060727;28;20482;-82
2023/08/02 01:12:15;;;;;;;17.33;8.00;;;15.40;99.90;;;;;;5046186;28;20410;-82
2023/08/02 01:14:46;;;;;;;17.20;8.45;;;15.50;99.90;;;;;;5052655;28;20427;-81
2023/08/02 01:17:13;;;;;;;23.92;8.73;;;15.40;99.90;;;;;;5075014;28;20421;-82
2023/08/02 01:19:39;;;;;;;16.60;8.48;;;15.60;99.90;;;;;;5048798;28;20391;-82
2023/08/02 01:22:05;;;;;;;17.35;8.10;;;15.40;99.90;;;;;;5041643;28;20416;-82
2023/08/02 01:24:36;;;;;;;15.77;8.23;;;15.40;99.90;;;;;;5041032;28;20425;-82
2023/08/02 01:27:06;;;;;;;17.70;8.35;;;15.40;99.90;;;;;;5053883;28;20417;-82
2023/08/02 01:29:34;;;;;;;15.82;8.02;;;15.30;99.90;;;;;;5041822;28;20414;-82
2023/08/02 01:32:01;;;;;;;16.77;7.68;;;15.20;99.90;;;;;;5068662;28;20414;-78
2023/08/02 01:34:28;;;;;;;16.50;7.80;;;15.20;99.90;;;;;;5073732;28;20503;-81
2023/08/02 01:36:53;;;;;;;22.55;8.40;;;15.40;99.90;;;;;;5075032;28;20414;-82
2023/08/02 01:39:19;;;;;;;17.35;7.80;;;15.10;99.90;;;;;;5075016;28;20977;-82
2023/08/02 01:41:45;;;;;;;16.48;8.23;;;15.30;99.90;;;;;;5029703;28;20415;-82
2023/08/02 01:44:10;;;;;;;15.90;8.38;;;15.10;99.90;;;;;;5051744;28;20420;-82
2023/08/02 01:46:36;;;;;;;13.87;7.73;;;15.30;99.90;;;;;;5070112;28;20414;-83
2023/08/02 01:49:02;;;;;;;15.77;8.40;;;15.40;99.90;;;;;;5058292;28;20401;-82
2023/08/02 01:51:28;;;;;;;14.38;7.70;;;15.30;99.90;;;;;;5047148;28;20421;-82
2023/08/02 01:53:53;;;;;;;23.55;9.20;;;15.40;99.90;;;;;;5075053;28;20903;-82
2023/08/02 01:56:19;;;;;;;17.23;8.40;;;15.10;99.90;;;;;;5040749;28;20418;-79
2023/08/02 01:58:45;;;;;;;15.13;8.37;;;;;;;;;;5075220;28;20433;-82
2023/08/02 02:01:11;;;;;;;14.20;8.10;;;15.30;99.90;;;;;;5052792;28;20865;-82
2023/08/02 02:03:36;;;;;;;19.23;8.33;;;15.30;99.90;;;;;;5048156;28;20423;-82
2023/08/02 02:06:02;;;;;;;12.80;7.97;;;15.40;99.90;;;;;;5060156;28;20448;-82
2023/08/02 02:08:28;;;;;;;13.82;8.07;;;15.30;99.90;;;;;;5063582;28;20398;-82
2023/08/02 02:10:54;;;;;;;13.07;7.57;;;15.20;99.90;;;;;;5058314;28;20414;-83
2023/08/02 02:13:22;;;;;;;14.68;7.82;;;15.20;99.90;;;;;;5061949;28;20495;-82
2023/08/02 02:15:48;;;;;;;17.58;8.10;;;15.20;99.90;;;;;;5057921;28;20746;-82
2023/08/02 02:18:14;;;;;;;13.80;7.57;;;15.20;99.90;;;;;;5057814;28;20406;-81
2023/08/02 02:20:39;;;;;;;16.48;8.00;;;15.40;99.90;;;;;;5048210;28;20422;-81
2023/08/02 02:23:05;;;;;;;18.65;7.85;;;15.30;99.90;;;;;;5056065;28;20416;-82
2023/08/02 02:25:31;;;;;;;13.40;7.80;;;15.20;99.90;;;;;;5073874;28;20454;-82
2023/08/02 02:27:57;;;;;;;18.17;8.43;;;15.40;99.90;;;;;;5043821;28;20490;-82
2023/08/02 02:30:22;;;;;;;16.10;7.90;;;15.20;99.90;;;;;;5038888;28;20492;-82
2023/08/02 02:32:48;;;;;;;18.03;8.67;;;15.40;99.90;;;;;;5065785;28;20414;-82
2023/08/02 02:35:14;;;;;;;18.30;7.90;;;15.20;99.90;;;;;;5070950;28;20468;-82
2023/08/02 02:37:41;;;;;;;18.97;7.87;;;13.60;99.90;;;;;;5043947;28;20458;-82
2023/08/02 02:40:08;;;;;;;17.15;8.20;;;15.00;99.90;;;;;;5040797;28;20480;-82
2023/08/02 02:42:38;;;;;;;19.70;8.77;;;15.20;99.90;;;;;;5046716;28;20420;-82
2023/08/02 02:45:04;;;;;;;15.63;7.88;;;15.10;99.90;;;;;;5073223;28;20440;-82
2023/08/02 02:47:30;;;;;;;20.35;7.95;;;15.10;99.90;;;;;;5051878;28;20422;-83
2023/08/02 02:49:56;;;;;;;16.60;7.90;;;15.10;99.90;;;;;;5055858;28;20417;-83
2023/08/02 02:52:23;;;;;;;16.37;7.43;;;15.00;99.90;;;;;;5050794;28;20416;-83
2023/08/02 02:54:49;;;;;;;17.00;7.97;;;15.10;99.90;;;;;;5054816;28;20407;-82
2023/08/02 02:57:15;;;;;;;17.35;7.57;;;15.00;99.90;;;;;;5051756;28;20478;-82
2023/08/02 02:59:40;;;;;;;20.40;8.13;;;15.10;99.90;;;;;;5055299;28;20509;-82
2023/08/02 03:02:06;;;;;;;19.45;7.97;;;15.00;99.90;;;;;;5036185;28;20842;-82
2023/08/02 03:04:32;;;;;;;21.03;8.03;;;15.20;99.90;;;;;;5034991;28;20415;-82
2023/08/02 03:06:58;;;;;;;19.23;8.13;;;15.00;99.90;;;;;;5063009;28;20425;-82
2023/08/02 03:09:23;;;;;;;24.42;8.48;;;15.30;99.90;;;;;;5054750;28;20463;-81
2023/08/02 03:11:49;;;;;;;18.33;8.30;;;15.10;99.90;;;;;;5070971;28;20407;-82
2023/08/02 03:14:15;;;;;;;22.10;8.65;;;15.10;99.90;;;;;;5072765;28;20872;-82
2023/08/02 03:16:43;;;;;;;23.03;8.50;;;15.00;99.90;;;;;;5056786;28;20425;-82
2023/08/02 03:19:10;;;;;;;21.80;8.38;;;;;;;;;;5041156;28;20838;-82
2023/08/02 03:21:36;;;;;;;19.38;8.40;;;15.20;99.90;;;;;;5050529;28;20438;-83
2023/08/02 03:24:02;;;;;;;24.38;8.65;;;14.80;99.90;;;;;;5042065;28;20419;-82
2023/08/02 03:26:28;;;;;;;21.13;8.90;;;14.90;99.90;;;;;;5060480;28;20833;-82
2023/08/02 03:28:53;;;;;;;27.20;9.80;;;15.30;99.90;;;;;;5061283;28;20425;-82
2023/08/02 03:31:20;;;;;;;22.20;9.37;;;;;;;;;;5039686;28;20407;-82
2023/08/02 03:33:45;;;;;;;25.50;10.02;;;15.10;99.90;;;;;;5056483;28;20417;-82
2023/08/02 03:36:11;;;;;;;22.97;9.77;;;15.00;99.90;;;;;;5068060;28;20493;-82
2023/08/02 03:38:39;;;;;;;24.42;9.88;;;15.00;99.90;;;;;;5047671;28;20414;-82
2023/08/02 03:41:05;;;;;;;26.42;10.23;;;14.80;99.90;;;;;;5075308;28;20426;-82
2023/08/02 03:43:30;;;;;;;26.73;9.73;;;15.20;99.90;;;;;;5055400;28;20469;-82
2023/08/02 03:45:56;;;;;;;28.48;10.40;;;15.00;99.90;;;;;;5062054;28;20421;-83
2023/08/02 03:48:28;;;;;;;27.97;10.47;;;15.00;99.90;;;;;;5047615;28;20514;-83
2023/08/02 03:50:57;;;;;;;24.80;10.00;;;15.10;99.90;;;;;;5076623;28;20416;-82
2023/08/02 03:53:25;;;;;;;27.08;9.57;;;15.20;99.90;;;;;;5043584;28;20824;-83
2023/08/02 03:55:50;;;;;;;29.42;10.30;;;15.20;99.90;;;;;;5055546;28;20423;-82
2023/08/02 03:58:16;;;;;;;28.93;10.73;;;15.30;99.90;;;;;;5056969;28;20425;-82
2023/08/02 04:00:42;;;;;;;22.13;9.60;;;15.10;99.90;;;;;;5060289;28;20492;-82
2023/08/02 04:03:07;;;;;;;25.30;9.50;;;15.10;99.90;;;;;;5048542;28;20987;-82
2023/08/02 04:05:33;;;;;;;23.00;9.25;;;15.10;99.90;;;;;;5060251;28;20456;-82
2023/08/02 04:07:59;;;;;;;28.85;10.20;;;15.20;99.90;;;;;;5040491;28;20404;-83
2023/08/02 04:10:28;;;;;;;22.50;9.50;;;15.00;99.90;;;;;;5035643;28;20446;-83
2023/08/02 04:12:56;;;;;;;21.83;9.07;;;15.00;99.90;;;;;;5055857;28;20409;-83
2023/08/02 04:15:22;;;;;;;28.63;10.10;;;;;;;;;;5060679;28;20451;-83
2023/08/02 04:17:50;;;;;;;25.42;9.48;;;15.00;99.90;;;;;;5061119;28;20406;-82
2023/08/02 04:20:16;;;;;;;23.23;9.70;;;15.20;99.90;;;;;;5058053;28;20945;-83
2023/08/02 04:22:42;;;;;;;22.70;10.17;;;14.80;99.90;;;;;;5094838;28;20512;-83
2023/08/02 04:25:08;;;;;;;23.90;9.40;;;15.20;99.90;;;;;;5050564;28;20953;-82
2023/08/02 04:27:34;;;;;;;21.98;9.75;;;14.90;99.90;;;;;;5026577;28;20886;-83
2023/08/02 04:30:00;;;;;;;22.90;9.73;;;14.70;99.90;;;;;;5076849;28;20428;-83
2023/08/02 04:32:30;;;;;;;19.80;9.90;;;14.90;99.90;;;;;;5073845;28;20513;-83
2023/08/02 04:34:56;;;;;;;23.33;9.65;;;14.90;99.90;;;;;;5032087;28;20442;-82
2023/08/02 04:37:25;;;;;;;20.40;9.93;;;;;;;;;;5055183;28;20871;-83
2023/08/02 04:40:06;;;;;;;19.17;9.38;;;;;;;;;;5039682;28;20396;-83
2023/08/02 04:42:35;;;;;;;22.40;9.90;;;14.80;99.90;;;;;;5026145;28;20407;-83
2023/08/02 04:45:01;;;;;;;25.80;10.27;;;14.80;99.90;;;;;;5021383;28;20484;-83
2023/08/02 04:47:29;;;;;;;22.58;10.35;;;14.80;99.90;;;;;;5041029;28;20419;-84
2023/08/02 04:49:58;;;;;;;25.15;9.98;;;14.80;99.90;;;;;;5023341;28;20459;-83
2023/08/02 04:52:25;;;;;;;23.37;9.83;;;;;;;;;;5027412;28;20510;-83
2023/08/02 04:54:51;;;;;;;22.15;10.13;;;14.60;99.90;;;;;;5042471;28;20420;-84
2023/08/02 04:57:18;;;;;;;19.93;9.20;;;;;;;;;;5059632;28;20408;-84
2023/08/02 04:59:44;;;;;;;26.90;10.90;;;;;;;;;;5041338;28;20427;-83
2023/08/02 05:02:10;;;;;;;22.45;9.82;;;;;;;;;;5027287;28;20455;-83
2023/08/02 05:04:36;;;;;;;20.48;9.85;;;14.60;99.90;;;;;;5027660;28;20433;-84
2023/08/02 05:07:06;;;;;;;21.17;10.70;;;14.70;99.90;;;;;;5022703;28;20480;-83
2023/08/02 05:09:35;;;;;;;22.88;9.93;;;14.70;99.90;;;;;;5057877;28;20903;-83
2023/08/02 05:12:01;;;;;;;24.65;10.52;;;14.80;99.90;;;;;;5037483;28;20503;-83
2023/08/02 05:14:28;;;;;;;25.45;10.55;;;;;;;;;;5022243;28;20420;-81
2023/08/02 05:16:54;;;;;;;18.73;10.30;;;14.70;99.90;;;;;;5030873;28;22062;-83
2023/08/02 05:19:20;;;;;;;27.90;11.07;;;14.80;99.90;;;;;;5024930;28;20424;-83
2023/08/02 05:21:46;;;;;;;22.70;10.47;;;;;;;;;;5034277;28;20447;-83
2023/08/02 05:24:12;;;;;;;22.77;10.75;;;;;;;;;;5049163;28;20435;-83
2023/08/02 05:26:38;;;;;;;22.85;11.13;;;14.70;99.90;;;;;;5028053;28;20413;-83
2023/08/02 05:29:04;;;;;;;19.50;10.25;;;14.70;99.90;;;;;;5008447;28;20966;-82
2023/08/02 05:31:30;;;;;;;24.63;10.75;;;14.80;99.90;;;;;;5003830;28;20408;-84
2023/08/02 05:33:56;;;;;;;24.90;10.95;;;;;;;;;;5036459;28;20434;-83
2023/08/02 05:36:23;;;;;;;23.98;10.88;;;;;;;;;;5026733;28;20494;-83
2023/08/02 05:38:48;;;;;;;21.45;10.55;;;14.80;99.90;;;;;;5040518;28;20424;-83
2023/08/02 05:41:15;;;;;;;22.25;10.68;;;;;;;;;;5020110;28;20424;-82
2023/08/02 05:43:44;;;;;;;21.38;11.13;;;14.80;99.90;;;;;;5022485;28;20462;-83
2023/08/02 05:46:12;;;;;;;19.70;10.07;;;;;;;;;;5036140;28;20481;-83
2023/08/02 05:48:37;;;;;;;20.30;10.57;;;14.80;99.90;;;;;;5024400;28;20428;-83
2023/08/02 05:51:03;;;;;;;20.77;10.63;;;14.80;99.90;;;;;;5036989;28;20442;-82
2023/08/02 05:53:29;;;;;;;23.73;10.73;;;15.00;99.90;;;;;;5036446;28;21028;-83
2023/08/02 05:55:55;;;;;;;20.35;10.50;;;14.80;99.90;;;;;;5054366;28;20426;-79
2023/08/02 05:58:21;;;;;;;21.85;10.43;;;15.10;99.90;;;;;;5015294;28;20515;-82
2023/08/02 06:00:47;;;;;;;19.83;11.00;;;15.00;99.90;;;;;;5042852;28;20503;-81
2023/08/02 06:03:12;;;;;;;19.47;10.80;;;15.30;99.90;;;;;;5052715;28;20409;-81
2023/08/02 06:05:38;;;;;;;19.88;10.50;;;15.20;99.90;;;;;;5028532;28;20446;-82
2023/08/02 06:08:04;;;;;;;18.23;10.60;;;15.20;99.90;;;;;;5049496;28;20415;-82
2023/08/02 06:10:30;;;;;;;19.20;10.55;;;15.20;99.90;;;;;;5017102;28;20413;-82
2023/08/02 06:12:57;;;;;;;20.73;10.80;;;15.30;99.90;;;;;;5040507;28;20504;-83
2023/08/02 06:15:23;;;;;;;20.73;10.65;;;15.40;99.90;;;;;;5039612;28;20423;-83
2023/08/02 06:17:49;;;;;;;20.00;10.85;;;15.40;99.90;;;;;;5023806;28;20887;-82
2023/08/02 06:20:14;;;;;;;23.17;11.52;;;15.40;99.90;;;;;;5044780;28;20425;-80
2023/08/02 06:22:41;;;;;;;21.48;11.45;;;15.40;99.90;;;;;;5050050;28;20514;-83
2023/08/02 06:25:07;;;;;;;20.95;11.68;;;15.50;99.90;;;;;;5034021;28;20794;-83
2023/08/02 06:27:32;;;;;;;20.27;11.07;;;15.50;99.90;;;;;;5037184;28;20467;-83
2023/08/02 06:29:58;;;;;;;21.70;12.40;;;15.30;99.90;;;;;;5030760;28;20440;-82
2023/08/02 06:32:24;;;;;;;19.58;11.52;;;15.40;99.90;;;;;;5032264;28;20449;-82
2023/08/02 06:34:50;;;;;;;20.08;11.52;;;15.50;99.90;;;;;;5011454;28;20898;-82
2023/08/02 06:37:15;;;;;;;17.50;10.77;;;15.30;99.90;;;;;;5034494;28;20457;-82
2023/08/02 06:39:41;;;;;;;22.67;12.50;;;15.60;99.90;;;;;;5003008;28;20433;-82
2023/08/02 06:42:07;;;;;;;25.83;11.80;;;15.50;99.90;;;;;;5024746;28;20772;-82
2023/08/02 06:44:32;;;;;;;18.40;10.87;;;15.80;99.90;;;;;;5054281;28;20423;-83
2023/08/02 06:46:58;;;;;;;18.75;10.68;;;15.70;99.90;;;;;;5033342;28;20428;-83
2023/08/02 06:49:24;;;;;;;22.35;10.70;;;15.80;99.90;;;;;;5032827;28;20621;-83
2023/08/02 06:51:49;;;;;;;16.93;9.87;;;15.70;99.90;;;;;;5049078;28;20412;-83
2023/08/02 06:54:15;;;;;;;18.77;10.03;;;15.80;99.90;;;;;;5030145;28;20421;-83
2023/08/02 06:56:41;;;;;;;16.10;8.90;;;15.70;99.90;;;;;;5018428;28;20425;-82
2023/08/02 06:59:07;;;;;;;15.50;8.68;;;15.70;99.90;;;;;;5056673;28;20420;-84
2023/08/02 07:01:33;;;;;;;19.33;9.63;;;;;;;;;;5032570;28;20425;-82
2023/08/02 07:03:59;;;;;;;17.13;9.20;;;15.80;99.90;;;;;;5038820;28;20491;-82
2023/08/02 07:06:25;;;;;;;16.93;9.10;;;;;;;;;;5035381;28;20438;-81
2023/08/02 07:08:51;;;;;;;14.65;8.10;;;15.80;99.90;;;;;;5035328;28;20758;-82
2023/08/02 07:11:17;;;;;;;15.93;8.30;;;15.70;99.90;;;;;;5067912;28;20439;-82
2023/08/02 07:13:44;;;;;;;17.40;7.72;;;15.70;99.90;;;;;;5058834;28;20818;-81
2023/08/02 07:16:11;;;;;;;14.20;7.45;;;15.70;99.90;;;;;;5046620;28;20418;-81
2023/08/02 07:18:37;;;;;;;15.95;7.90;;;15.90;99.90;;;;;;5056774;28;20419;-81
2023/08/02 07:21:08;;;;;;;14.95;7.72;;;15.60;99.90;;;;;;5047210;28;20471;-81
2023/08/02 07:23:34;;;;;;;13.63;7.28;;;15.80;99.90;;;;;;5059433;28;20399;-81
2023/08/02 07:26:00;;;;;;;16.02;7.38;;;15.90;99.90;;;;;;5048308;28;20499;-81
2023/08/02 07:28:26;;;;;;;14.13;7.20;;;15.60;99.90;;;;;;5053358;28;20867;-81
2023/08/02 07:30:52;;;;;;;14.10;6.78;;;15.50;99.90;;;;;;5037580;28;20436;-80
2023/08/02 07:33:18;;;;;;;14.05;7.38;;;15.70;99.90;;;;;;5038200;28;20422;-79
2023/08/02 07:35:46;;;;;;;14.83;6.87;;;15.60;99.90;;;;;;5050562;28;20432;-88
2023/08/02 07:38:15;;;;;;;12.93;6.50;;;15.70;99.90;;;;;;5029717;28;20428;-83
2023/08/02 07:40:43;;;;;;;17.45;7.05;;;15.70;99.90;;;;;;5020168;28;20420;-83
2023/08/02 07:43:10;;;;;;;12.43;6.50;;;15.70;99.90;;;;;;5070162;28;20766;-82
2023/08/02 07:45:35;;;;;;;13.82;6.88;;;15.80;99.90;;;;;;5030197;28;20434;-83
2023/08/02 07:48:01;;;;;;;12.73;6.50;;;15.60;99.90;;;;;;5036853;28;20423;-83
2023/08/02 07:50:27;;;;;;;16.50;6.63;;;15.60;99.90;;;;;;5037358;28;20765;-83
2023/08/02 07:52:52;;;;;;;13.13;6.33;;;15.80;99.90;;;;;;5003414;28;20431;-82
2023/08/02 07:55:18;;;;;;;14.20;7.40;;;15.80;99.90;;;;;;5038160;28;20419;-82
2023/08/02 07:57:44;;;;;;;14.02;7.45;;;15.70;99.90;;;;;;5044279;28;20460;-81
2023/08/02 08:00:10;;;;;;;14.13;7.20;;;15.80;99.90;;;;;;5005159;28;20857;-82
2023/08/02 08:02:36;;;;;;;12.63;7.30;;;15.50;99.90;;;;;;5019200;28;20431;-81
2023/08/02 08:05:01;;;;;;;14.02;7.00;;;15.50;99.90;;;;;;5031872;28;20423;-81
2023/08/02 08:07:27;;;;;;;14.15;7.13;;;15.50;99.90;;;;;;5019042;28;20490;-81
2023/08/02 08:09:53;;;;;;;18.43;7.53;;;15.60;99.90;;;;;;5034731;28;20506;-82
2023/08/02 08:12:19;;;;;;;18.30;7.73;;;15.30;99.90;;;;;;5007315;28;20420;-81
2023/08/02 08:14:44;;;;;;;21.23;7.25;;;15.40;99.90;;;;;;5020477;28;20512;-81
2023/08/02 08:17:10;;;;;;;19.05;7.38;;;15.40;99.90;;;;;;5015489;28;20805;-80
2023/08/02 08:19:36;;;;;;;16.33;7.30;;;15.30;99.90;;;;;;5010359;28;20428;-79
2023/08/02 08:22:02;;;;;;;16.52;7.45;;;15.00;99.90;;;;;;5004582;28;20496;-79
2023/08/02 08:24:28;;;;;;;19.88;7.88;;;15.00;99.90;;;;;;5033762;28;20795;-79
2023/08/02 08:26:57;;;;;;;20.52;7.50;;;15.00;99.90;;;;;;5033462;28;20988;-80
2023/08/02 08:29:23;;;;;;;16.17;7.53;;;15.00;99.90;;;;;;5034998;28;20443;-80
2023/08/02 08:31:49;;;;;;;18.30;7.33;;;15.20;99.90;;;;;;5015488;28;20538;-79
2023/08/02 08:34:14;;;;;;;17.13;7.53;;;14.90;99.90;;;;;;5011424;28;20426;-79
2023/08/02 08:36:40;;;;;;;17.02;6.72;;;14.90;99.90;;;;;;5036905;28;21656;-79
2023/08/02 08:39:06;;;;;;;16.33;6.93;;;14.90;99.90;;;;;;5058779;28;20434;-79
2023/08/02 08:41:31;;;;;;;13.93;6.63;;;15.00;99.90;;;;;;5043613;28;20506;-79
2023/08/02 08:44:00;;;;;;;18.02;6.90;;;14.80;99.90;;;;;;5029448;28;21013;-79
2023/08/02 08:46:27;;;;;;;17.23;6.88;;;14.90;99.90;;;;;;5056379;28;20459;-78
2023/08/02 08:48:53;;;;;;;17.38;7.03;;;14.90;99.90;;;;;;5030582;28;20414;-79
2023/08/02 08:51:22;;;;;;;15.38;7.15;;;14.80;99.90;;;;;;5060388;28;21107;-80
2023/08/02 08:53:49;;;;;;;15.80;7.00;;;14.70;99.90;;;;;;5042821;28;20428;-80
2023/08/02 08:56:17;;;;;;;16.67;7.47;;;14.90;99.90;;;;;;5061822;28;20413;-80
2023/08/02 08:58:43;;;;;;;15.93;7.40;;;14.80;99.90;;;;;;5044148;28;20514;-80
2023/08/02 09:01:10;;;;;;;19.52;7.25;;;15.10;99.90;;;;;;5045844;28;20431;-80
2023/08/02 09:03:35;;;;;;;17.52;7.38;;;15.00;99.90;;;;;;5043564;28;20431;-79
2023/08/02 09:06:03;;;;;;;15.63;7.43;;;15.10;99.90;;;;;;5040444;28;20759;-80
2023/08/02 09:08:39;;;;;;;15.50;7.68;;;15.00;99.90;;;;;;5045383;28;20429;-80
2023/08/02 09:11:05;;;;;;;14.65;7.28;;;15.20;99.90;;;;;;5057675;28;20942;-80
2023/08/02 09:13:31;;;;;;;14.20;7.05;;;15.20;99.90;;;;;;5044175;28;20899;-80
2023/08/02 09:16:13;;;;;;;14.18;7.40;;;15.30;99.90;;;;;;5060184;28;20509;-80
2023/08/02 09:18:44;;;;;;;13.88;7.53;;;15.40;99.90;;;;;;5057526;28;20491;-79
2023/08/02 09:21:23;;;;;;;12.77;7.68;;;15.50;99.90;;;;;;5059041;28;20429;-81
2023/08/02 09:23:56;;;;;;;13.38;7.43;;;15.30;99.90;;;;;;5059619;28;20492;-80
2023/08/02 09:26:22;;;;;;;15.13;7.73;;;15.40;99.90;;;;;;5059338;28;20429;-80
2023/08/02 09:29:01;;;;;;;13.13;8.10;;;15.30;99.90;;;;;;5039310;28;20560;-79
2023/08/02 09:31:29;;;;;;;11.98;7.80;;;15.60;99.90;;;;;;5039201;28;20420;-80
2023/08/02 09:33:55;;;;;;;11.90;7.35;;;15.10;99.90;;;;;;5073010;28;20421;-81
2023/08/02 09:36:35;;;;;;;12.20;7.75;;;15.60;99.90;;;;;;5064519;28;20902;-80
2023/08/02 09:39:14;;;;;;;14.45;8.40;;;15.60;99.90;;;;;;5041586;28;20759;-77
2023/08/02 09:41:40;;;;;;;12.00;7.40;;;15.50;99.90;;;;;;5036843;28;20933;-78
2023/08/02 09:44:07;;;;;;;13.52;7.60;;;15.50;99.90;;;;;;5058877;28;20438;-76
2023/08/02 09:46:35;;;;;;;11.02;7.82;;;15.70;99.90;;;;;;5031522;28;20813;-78
2023/08/02 09:49:15;;;;;;;12.10;7.90;;;15.60;99.90;;;;;;5045136;28;20418;-78
2023/08/02 09:51:43;;;;;;;11.88;7.60;;;15.60;99.90;;;;;;5061957;28;20830;-79
2023/08/02 09:54:12;;;;;;;11.90;7.90;;;15.60;99.90;;;;;;5050554;28;20418;-79
2023/08/02 09:56:39;;;;;;;10.88;7.40;;;15.60;99.90;;;;;;5041758;28;20427;-81
2023/08/02 09:59:06;;;;;;;13.52;8.02;;;15.60;99.90;;;;;;5059273;28;20831;-79
2023/08/02 10:01:33;;;;;;;11.30;7.20;;;15.70;99.90;;;;;;5064028;28;20468;-78
2023/08/02 10:04:03;;;;;;;10.73;7.20;;;15.50;99.90;;;;;;5074909;28;20413;-80
2023/08/02 10:06:34;;;;;;;12.43;7.53;;;;;;;;;;5041705;28;20441;-79
2023/08/02 10:09:05;;;;;;;12.02;7.13;;;14.90;99.90;;;;;;5063473;28;20426;-79
2023/08/02 10:11:55;;;;;;;12.33;7.23;;;15.60;99.90;;;;;;5056033;28;20431;-78
2023/08/02 10:14:22;;;;;;;12.02;7.30;;;;;;;;;;5036985;28;20431;-78
2023/08/02 10:16:51;;;;;;;14.85;7.45;;;15.60;99.90;;;;;;5044764;28;20413;-76
2023/08/02 10:19:17;;;;;;;13.50;7.10;;;15.50;99.90;;;;;;5067183;28;20440;-77
2023/08/02 10:21:44;;;;;;;10.48;7.07;;;15.60;99.90;;;;;;5064716;28;20912;-78
2023/08/02 10:24:16;;;;;;;11.82;7.38;;;15.40;99.90;;;;;;5065616;28;20519;-79
2023/08/02 10:26:43;;;;;;;11.27;6.95;;;15.60;99.90;;;;;;5041363;28;20447;-78
2023/08/02 10:29:10;;;;;;;11.02;6.82;;;15.60;99.90;;;;;;5035156;28;20404;-79
2023/08/02 10:31:36;;;;;;;10.55;6.50;;;15.60;99.90;;;;;;5064690;28;20922;-78
2023/08/02 10:34:21;;;;;;;10.05;6.13;;;15.60;99.90;;;;;;5072147;28;20419;-77
2023/08/02 10:36:55;;;;;;;9.18;6.05;;;15.70;99.90;;;;;;5048135;28;20449;-77
2023/08/02 10:39:52;;;;;;;8.10;5.72;;;15.70;99.90;;;;;;5040130;28;20455;-78
2023/08/02 10:42:21;;;;;;;7.28;5.30;;;15.70;99.90;;;;;;5072160;28;20438;-78
2023/08/02 10:44:56;;;;;;;7.82;5.22;;;15.80;99.90;;;;;;5070289;28;20422;-79
2023/08/02 10:47:32;;;;;;;7.05;4.80;;;16.00;99.90;;;;;;5072895;28;20418;-79
2023/08/02 10:49:59;;;;;;;5.15;4.20;;;15.70;99.90;;;;;;5049588;28;20422;-76
2023/08/02 10:52:30;;;;;;;6.88;4.00;;;;;;;;;;5037636;28;20487;-78
2023/08/02 10:55:09;;;;;;;5.40;3.80;;;16.10;99.90;;;;;;5066549;28;21009;-78
2023/08/02 10:57:36;;;;;;;4.80;3.47;;;16.00;99.90;;;;;;5038327;28;20752;-77
2023/08/02 11:00:15;;;;;;;4.80;3.45;;;16.00;99.90;;;;;;5068144;28;20499;-80
2023/08/02 11:02:47;;;;;;;5.10;3.40;;;15.90;99.90;;;;;;5068204;28;20421;-78
2023/08/02 11:05:16;;;;;;;4.90;2.90;;;16.00;99.90;;;;;;5052361;28;20525;-78
2023/08/02 11:07:42;;;;;;;4.32;2.70;;;16.10;99.90;;;;;;5060583;28;20833;-80
2023/08/02 11:10:08;;;;;;;4.70;2.72;;;16.00;99.90;;;;;;5034192;28;20498;-79
2023/08/02 11:12:34;;;;;;;4.53;2.78;;;16.10;99.90;;;;;;5059205;28;20473;-79
2023/08/02 11:15:00;;;;;;;3.97;2.90;;;16.20;99.90;;;;;;5069705;28;20905;-79
2023/08/02 11:17:26;;;;;;;5.10;2.70;;;16.00;99.90;;;;;;5053182;28;20424;-80
2023/08/02 11:19:53;;;;;;;3.97;2.70;;;16.00;99.90;;;;;;5049547;28;20418;-80
2023/08/02 11:22:19;;;;;;;4.43;3.00;;;16.30;99.90;;;;;;5059424;28;20417;-81
2023/08/02 11:24:50;;;;;;;3.90;3.10;;;16.00;99.90;;;;;;5033384;28;20424;-80
2023/08/02 11:27:23;;;;;;;4.30;3.20;;;16.50;99.90;;;;;;5048490;28;20414;-81
2023/08/02 11:30:03;;;;;;;3.90;3.20;;;16.70;99.90;;;;;;5052845;28;20615;-79
2023/08/02 11:32:30;;;;;;;5.22;3.20;;;16.50;99.90;;;;;;5057739;28;20410;-79
2023/08/02 11:34:59;;;;;;;4.15;3.00;;;16.80;99.90;;;;;;5042364;28;20770;-81
2023/08/02 11:37:26;;;;;;;3.90;3.10;;;16.70;99.90;;;;;;5063086;28;20410;-80
2023/08/02 11:39:56;;;;;;;3.95;2.90;;;17.00;99.90;;;;;;5026502;28;20567;-80
2023/08/02 11:42:23;;;;;;;3.40;2.80;;;17.20;99.90;;;;;;5025450;28;20428;-78
2023/08/02 11:44:49;;;;;;;4.25;2.97;;;17.00;99.90;;;;;;5026241;28;20467;-80
2023/08/02 11:47:15;;;;;;;3.88;3.10;;;17.10;99.90;;;;;;5059798;28;20496;-79
2023/08/02 11:50:07;;;;;;;3.42;2.80;;;17.00;99.90;;;;;;5044126;28;20431;-79
2023/08/02 11:52:33;;;;;;;3.30;2.60;;;17.20;99.90;;;;;;5077013;28;20418;-80
2023/08/02 11:55:00;;;;;;;3.60;2.90;;;17.10;99.90;;;;;;5063236;28;20460;-80
2023/08/02 11:57:26;;;;;;;3.72;3.10;;;17.10;99.90;;;;;;5065311;28;20814;-78
2023/08/02 11:59:56;;;;;;;3.80;2.80;;;17.30;99.90;;;;;;5057477;28;20712;-79
2023/08/02 12:02:26;;;;;;;4.30;3.00;;;17.40;99.90;;;;;;5057395;28;20433;-80
2023/08/02 12:04:52;;;;;;;3.67;3.00;;;17.40;99.90;;;;;;5044480;28;20959;-80
2023/08/02 12:07:25;;;;;;;4.80;3.60;;;17.50;99.90;;;;;;5059122;28;20422;-79
2023/08/02 12:09:50;;;;;;;4.57;3.35;;;18.00;99.90;;;;;;5059984;28;20764;-79
2023/08/02 12:12:16;;;;;;;5.33;3.40;;;18.00;99.90;;;;;;5064508;28;20418;-80
2023/08/02 12:14:48;;;;;;;4.47;3.50;;;17.90;99.90;;;;;;5028821;28;20417;-79
2023/08/02 12:17:21;;;;;;;4.77;3.70;;;17.90;99.90;;;;;;5046932;28;20412;-81
2023/08/02 12:19:48;;;;;;;5.78;3.83;;;18.20;99.90;;;;;;5028867;28;20427;-79
2023/08/02 12:22:15;;;;;;;5.65;4.40;;;18.20;99.90;;;;;;5028654;28;20430;-79
2023/08/02 12:24:41;;;;;;;5.35;4.40;;;18.20;99.90;;;;;;5060826;28;20847;-80
2023/08/02 12:27:17;;;;;;;6.70;4.53;;;18.50;99.90;;;;;;5058540;28;20417;-79
2023/08/02 12:29:44;;;;;;;5.63;5.03;;;18.40;99.90;;;;;;5062399;28;20411;-79
2023/08/02 12:32:21;;;;;;;6.75;5.10;;;18.50;99.90;;;;;;5045039;28;20508;-80
2023/08/02 12:34:47;;;;;;;5.68;5.10;;;18.80;99.90;;;;;;5042372;28;20490;-79
2023/08/02 12:37:15;;;;;;;6.75;5.22;;;19.50;99.90;;;;;;5063057;28;20525;-80
2023/08/02 12:39:41;;;;;;;5.17;4.50;;;19.50;99.90;;;;;;5045371;28;20417;-79
2023/08/02 12:42:07;;;;;;;4.60;4.10;;;19.70;99.90;;;;;;5062220;28;20759;-80
2023/08/02 12:44:40;;;;;;;5.60;4.20;;;19.60;99.90;;;;;;5014558;28;20433;-80
2023/08/02 12:47:08;;;;;;;4.90;3.65;;;19.40;99.90;;;;;;5042414;28;20418;-80